Time;durP1;ratioP1;P1;durP2;ratioP2;P2;SDS_P1;SDS_P2;PMS_P1;PMS_P2;Temp;Humidity;BMP_temperature;BMP_pressure;BME280_temperature;BME280_humidity;BME280_pressure;Samples;Min_cycle;Max_cycle;Signal;HPM_P1;HPM_P2
2023/01/30 00:01:40;;;;;;;5.00;2.17;;;;;;;7.09;77.26;100508.78;4965430;28;20058;-46
2023/01/30 00:04:07;;;;;;;4.30;1.85;;;;;;;7.07;77.73;100506.19;4959569;28;20105;-48
2023/01/30 00:06:33;;;;;;;5.72;2.17;;;;;;;7.07;76.25;100501.88;4957987;28;20641;-54
2023/01/30 00:09:00;;;;;;;4.18;2.33;;;;;;;7.08;77.42;100510.47;4958920;28;20910;-48
2023/01/30 00:11:28;;;;;;;7.00;1.70;;;;;;;7.10;77.29;100510.50;4964496;28;20553;-48
2023/01/30 00:13:55;;;;;;;3.90;1.73;;;;;;;7.11;77.74;100523.41;4959258;28;20047;-50
2023/01/30 00:16:22;;;;;;;4.53;1.65;;;;;;;7.12;77.99;100522.56;4962869;28;20043;-47
2023/01/30 00:18:49;;;;;;;8.10;1.90;;;;;;;7.11;76.87;100518.28;4959119;28;20051;-48
2023/01/30 00:21:16;;;;;;;8.07;1.75;;;;;;;7.14;77.82;100525.19;4960319;28;20051;-48
2023/01/30 00:23:43;;;;;;;2.58;1.17;;;;;;;7.14;77.76;100522.59;4959222;28;20042;-49
2023/01/30 00:26:10;;;;;;;4.43;1.45;;;;;;;7.15;76.91;100530.38;4962207;28;20047;-48
2023/01/30 00:28:38;;;;;;;7.55;1.83;;;;;;;7.17;76.88;100533.81;4959829;28;20074;-48
2023/01/30 00:31:05;;;;;;;3.88;1.83;;;;;;;7.18;77.60;100526.97;4952162;28;20613;-48
2023/01/30 00:33:32;;;;;;;3.88;1.88;;;;;;;7.18;78.24;100520.13;4958886;28;20707;-49
2023/01/30 00:36:00;;;;;;;3.88;1.90;;;;;;;7.18;77.05;100504.66;4957811;28;20058;-48
2023/01/30 00:38:27;;;;;;;3.78;2.03;;;;;;;7.22;77.57;100525.34;4961993;28;20514;-50
2023/01/30 00:40:54;;;;;;;7.57;1.88;;;;;;;7.23;77.14;100517.63;4965042;28;20140;-49
2023/01/30 00:49:18;;;;;;;4.00;1.30;;;;;;;7.22;78.44;100525.34;4962463;28;20038;-49
2023/01/30 00:51:45;;;;;;;6.70;1.75;;;;;;;7.26;78.16;100516.84;4965145;28;20660;-49
2023/01/30 00:54:12;;;;;;;5.13;1.80;;;;;;;7.27;78.22;100523.72;4965493;28;20051;-48
2023/01/30 00:56:38;;;;;;;3.00;1.10;;;;;;;7.26;78.52;100529.72;4964643;28;20058;-49
2023/01/30 00:59:05;;;;;;;4.20;1.38;;;;;;;7.18;79.08;100535.59;4955411;28;20743;-48
2023/01/30 01:01:31;;;;;;;2.70;1.05;;;;;;;7.19;79.30;100537.31;4956533;28;20097;-48
2023/01/30 01:03:58;;;;;;;2.33;1.33;;;;;;;7.09;80.02;100529.38;4955631;28;20101;-48
2023/01/30 01:06:25;;;;;;;4.65;1.63;;;;;;;7.13;78.98;100539.75;4957934;28;20109;-48
2023/01/30 01:08:51;;;;;;;4.13;1.42;;;;;;;7.13;78.76;100537.19;4961884;28;20054;-49
2023/01/30 01:11:25;;;;;;;5.80;1.02;;;;;;;7.14;78.82;100536.38;4959489;28;20082;-50
2023/01/30 01:13:54;;;;;;;2.92;1.88;;;;;;;7.08;79.77;100543.97;4968043;28;20459;-49
2023/01/30 01:16:21;;;;;;;4.82;1.55;;;;;;;7.10;80.96;100542.31;4957327;28;20047;-51
2023/01/30 01:18:49;;;;;;;3.22;0.73;;;;;;;7.16;79.87;100546.72;4959865;28;20054;-50
2023/01/30 01:21:17;;;;;;;4.63;0.98;;;;;;;7.15;79.94;100556.13;4952698;28;20788;-49
2023/01/30 01:23:50;;;;;;;7.10;1.50;;;;;;;7.20;80.89;100566.53;4974933;28;20047;-48
2023/01/30 01:26:18;;;;;;;3.70;1.08;;;;;;;7.23;79.85;100568.28;4955601;28;20055;-48
2023/01/30 01:28:45;;;;;;;3.55;1.05;;;;;;;7.31;79.96;100571.88;4961570;28;20046;-48
2023/01/30 01:31:13;;;;;;;4.22;1.05;;;;;;;7.30;80.31;100575.31;4960439;28;20058;-49
2023/01/30 01:33:40;;;;;;;3.08;0.95;;;;;;;7.31;80.23;100571.88;4961400;28;20074;-48
2023/01/30 01:36:07;;;;;;;4.18;1.02;;;;;;;7.35;79.35;100576.25;4958016;28;20108;-47
2023/01/30 01:38:34;;;;;;;5.63;1.23;;;;;;;7.30;80.59;100565.00;4957929;28;20043;-47
2023/01/30 01:41:01;;;;;;;6.82;1.35;;;;;;;7.31;80.17;100561.59;4960941;28;20158;-48
2023/01/30 01:43:31;;;;;;;8.52;1.20;;;;;;;7.29;78.73;100558.97;4961798;28;20043;-47
2023/01/30 01:46:05;;;;;;;4.28;1.35;;;;;;;7.24;78.42;100552.00;4959702;28;20138;-47
2023/01/30 01:48:38;;;;;;;7.15;1.15;;;;;;;7.26;78.49;100553.75;4965511;28;20462;-47
2023/01/30 01:51:11;;;;;;;5.15;1.58;;;;;;;7.25;77.89;100540.84;4954425;28;20179;-47
2023/01/30 01:53:45;;;;;;;16.88;2.47;;;;;;;7.20;78.17;100545.94;4958972;28;20614;-51
2023/01/30 01:56:15;;;;;;;5.43;0.98;;;;;;;7.15;77.81;100544.94;4956712;28;20058;-47
2023/01/30 01:58:49;;;;;;;4.85;1.13;;;;;;;7.09;76.47;100550.84;4956836;28;20066;-48
2023/01/30 02:01:16;;;;;;;15.10;1.67;;;;;;;7.05;76.05;100556.78;4955647;28;20953;-47
2023/01/30 02:03:49;;;;;;;4.38;1.05;;;;;;;7.00;75.87;100545.53;4960051;28;20487;-49
2023/01/30 02:06:17;;;;;;;3.20;1.85;;;;;;;6.84;74.91;100554.63;4961477;28;20543;-50
2023/01/30 02:08:51;;;;;;;3.85;0.70;;;;;;;6.90;74.77;100565.06;4961008;28;20566;-48
2023/01/30 02:13:55;;;;;;;10.70;2.15;;;;;;;6.84;74.06;100563.25;5033895;27;20418;-48
2023/01/30 02:16:22;;;;;;;9.13;2.03;;;;;;;6.74;74.24;100569.91;5021540;28;20107;-47
2023/01/30 02:18:49;;;;;;;8.10;2.38;;;;;;;6.75;74.34;100573.34;5020228;28;20128;-47
2023/01/30 02:32:12;;;;;;;11.95;2.10;;;;;;;6.82;73.74;100585.50;5020319;28;20394;-46
2023/01/30 02:35:04;;;;;;;7.20;2.05;;;;;;;6.76;73.22;100580.22;5012528;28;20078;-48
2023/01/30 02:37:58;;;;;;;3.42;1.52;;;;;;;6.73;73.48;100582.75;5013391;28;20054;-48
2023/01/30 02:48:53;;;;;;;7.55;2.42;;;;;;;6.68;72.90;100598.06;5048482;28;20403;-47
2023/01/30 02:51:27;;;;;;;8.70;0.77;;;;;;;6.56;72.50;100601.25;5012968;28;20152;-49
2023/01/30 02:53:54;;;;;;;5.88;0.77;;;;;;;6.49;72.78;100609.66;5002073;28;20161;-48
2023/01/30 02:56:21;;;;;;;2.58;0.70;;;;;;;6.51;72.92;100607.97;5004773;28;20510;-46
2023/01/30 02:58:53;;;;;;;6.63;1.02;;;;;;;6.48;72.54;100618.25;5005751;28;20125;-49
2023/01/30 03:04:43;;;;;;;4.22;1.55;;;;;;;6.34;72.82;100626.47;5044179;28;20991;-48
2023/01/30 03:07:23;;;;;;;4.85;1.38;;;;;;;6.22;71.82;100631.34;5014796;28;20049;-47
2023/01/30 03:12:44;;;;;;;7.43;1.25;;;;;;;6.27;72.34;100632.31;5094867;27;20791;-48
2023/01/30 03:17:48;;;;;;;7.50;2.90;;;;;;;6.09;71.45;100631.03;5058279;28;20386;-48
2023/01/30 03:20:19;;;;;;;9.55;2.67;;;;;;;6.22;71.60;100621.94;5005999;28;20081;-47
2023/01/30 03:22:46;;;;;;;8.05;2.10;;;;;;;6.23;71.77;100635.63;5026764;28;20046;-49
2023/01/30 03:25:18;;;;;;;7.22;1.67;;;;;;;6.25;72.40;100634.00;4997179;28;20046;-48
2023/01/30 03:27:47;;;;;;;7.55;2.58;;;;;;;6.22;72.32;100631.34;4998424;28;20046;-49
2023/01/30 03:30:14;;;;;;;1.83;0.40;;;;;;;6.11;70.19;100633.66;4997786;28;20390;-48
2023/01/30 03:32:40;;;;;;;5.05;1.17;;;;;;;6.06;71.09;100641.25;4997742;28;20097;-50
2023/01/30 03:35:08;;;;;;;8.93;2.67;;;;;;;6.02;70.31;100652.25;5001154;28;20682;-48
2023/01/30 03:37:35;;;;;;;8.48;2.35;;;;;;;5.95;69.80;100648.66;4996917;28;20042;-48
2023/01/30 03:40:02;;;;;;;5.88;2.13;;;;;;;5.91;69.26;100647.69;4992868;28;20047;-46
2023/01/30 03:42:29;;;;;;;8.35;2.58;;;;;;;5.96;68.46;100654.66;4999303;28;20647;-48
2023/01/30 03:44:56;;;;;;;6.90;1.77;;;;;;;5.82;69.13;100644.88;4992642;28;20108;-47
2023/01/30 03:47:23;;;;;;;8.30;2.15;;;;;;;5.90;69.45;100645.97;4999602;28;20848;-50
2023/01/30 03:49:49;;;;;;;2.05;0.80;;;;;;;5.76;67.14;100629.28;5000859;28;20093;-49
2023/01/30 03:52:16;;;;;;;4.10;1.80;;;;;;;5.79;67.99;100645.69;4991747;28;20631;-47
2023/01/30 03:54:43;;;;;;;3.53;0.60;;;;;;;5.84;67.74;100645.78;4993353;28;20512;-48
2023/01/30 03:57:09;;;;;;;1.98;1.45;;;;;;;5.72;68.06;100646.34;4994018;28;20050;-47
2023/01/30 03:59:36;;;;;;;4.32;2.70;;;;;;;5.80;68.10;100649.09;4981268;28;20689;-47
2023/01/30 04:02:03;;;;;;;6.18;0.70;;;;;;;5.73;67.97;100648.06;4979920;28;20454;-48
2023/01/30 04:04:30;;;;;;;7.35;2.58;;;;;;;5.74;68.15;100654.09;4975325;28;20043;-50
2023/01/30 04:06:56;;;;;;;7.13;0.65;;;;;;;5.69;68.61;100661.69;4980198;28;20423;-48
2023/01/30 04:09:23;;;;;;;3.95;0.75;;;;;;;5.64;67.36;100658.97;4976049;28;20471;-48
2023/01/30 04:11:50;;;;;;;6.10;3.15;;;;;;;5.69;68.41;100661.69;4977733;28;20053;-46
2023/01/30 04:14:16;;;;;;;5.75;0.95;;;;;;;5.65;68.59;100659.84;4987802;28;20406;-47
2023/01/30 04:16:44;;;;;;;6.22;2.22;;;;;;;5.64;67.79;100664.13;4982597;28;20652;-50
2023/01/30 04:19:11;;;;;;;8.48;2.35;;;;;;;5.59;68.38;100670.84;4980549;28;20053;-51
2023/01/30 04:21:38;;;;;;;8.60;1.98;;;;;;;5.57;68.00;100677.63;4979538;28;20758;-48
2023/01/30 04:24:05;;;;;;;5.65;2.03;;;;;;;5.55;68.82;100683.53;4979667;28;20053;-47
2023/01/30 04:26:32;;;;;;;5.30;2.70;;;;;;;5.51;68.26;100695.44;4975670;28;20507;-48
2023/01/30 04:28:59;;;;;;;5.30;2.03;;;;;;;5.48;68.08;100693.69;4968629;28;20047;-47
2023/01/30 04:31:25;;;;;;;12.30;2.97;;;;;;;5.48;68.99;100696.25;4966679;28;20046;-47
2023/01/30 04:33:52;;;;;;;5.45;1.48;;;;;;;5.45;68.49;100685.00;4968557;28;20053;-48
2023/01/30 04:36:19;;;;;;;8.85;2.50;;;;;;;5.42;68.70;100678.06;4968937;28;20059;-49
2023/01/30 04:38:45;;;;;;;7.00;2.10;;;;;;;5.39;68.67;100684.00;4967664;28;20490;-47
2023/01/30 04:41:12;;;;;;;5.35;1.92;;;;;;;5.36;68.89;100681.34;4964727;28;20574;-49
2023/01/30 04:43:39;;;;;;;7.00;2.53;;;;;;;5.32;69.42;100687.22;4964648;28;20526;-47
2023/01/30 04:46:06;;;;;;;8.15;2.35;;;;;;;5.31;68.81;100692.31;4964533;28;20047;-50
2023/01/30 04:48:33;;;;;;;4.85;1.90;;;;;;;5.27;68.78;100693.91;4967710;28;20055;-47
2023/01/30 04:50:59;;;;;;;8.15;2.30;;;;;;;5.27;69.25;100699.06;4969244;28;20113;-46
2023/01/30 04:53:26;;;;;;;3.13;2.00;;;;;;;5.21;69.54;100698.88;4966504;28;20066;-46
2023/01/30 04:55:53;;;;;;;5.90;0.63;;;;;;;5.23;69.44;100702.34;4966808;28;20447;-46
2023/01/30 04:58:20;;;;;;;6.40;2.17;;;;;;;5.21;68.54;100711.69;4968108;28;20047;-47
2023/01/30 05:00:47;;;;;;;7.35;2.30;;;;;;;5.19;69.20;100710.78;4967558;28;20054;-48
2023/01/30 05:03:14;;;;;;;4.55;2.00;;;;;;;5.23;69.30;100707.47;4965319;28;20081;-46
2023/01/30 05:05:41;;;;;;;2.80;1.00;;;;;;;5.24;68.83;100709.22;4966696;28;20716;-46
2023/01/30 05:08:08;;;;;;;5.15;1.63;;;;;;;5.30;68.99;100711.13;4966082;28;20047;-46
2023/01/30 05:10:35;;;;;;;6.07;2.38;;;;;;;5.34;69.51;100721.50;4965927;28;20587;-48
2023/01/30 05:13:04;;;;;;;3.15;2.05;;;;;;;5.35;69.74;100713.00;4966780;28;20059;-46
2023/01/30 05:15:31;;;;;;;3.20;2.00;;;;;;;5.32;69.56;100712.91;4966892;28;20070;-47
2023/01/30 05:17:58;;;;;;;7.63;1.73;;;;;;;5.30;69.03;100717.09;4965262;28;20055;-47
2023/01/30 05:20:25;;;;;;;10.73;2.83;;;;;;;5.23;69.16;100722.88;4966197;28;20082;-49
2023/01/30 05:22:52;;;;;;;7.95;0.93;;;;;;;5.21;69.23;100724.53;4966465;28;20687;-47
2023/01/30 05:25:20;;;;;;;12.50;1.75;;;;;;;5.19;69.59;100732.19;4966260;28;20128;-50
2023/01/30 05:27:47;;;;;;;4.07;2.30;;;;;;;5.22;69.34;100731.41;4966827;28;20050;-48
2023/01/30 05:30:13;;;;;;;9.25;3.00;;;;;;;5.24;69.08;100733.19;4965630;28;20133;-47
2023/01/30 05:32:40;;;;;;;4.85;2.00;;;;;;;5.28;69.93;100732.47;4966681;28;20561;-47
2023/01/30 05:35:07;;;;;;;5.15;2.10;;;;;;;5.27;69.04;100729.88;4970045;28;20047;-46
2023/01/30 05:37:34;;;;;;;4.78;2.08;;;;;;;5.31;69.46;100725.69;4966841;28;20046;-49
2023/01/30 05:40:01;;;;;;;8.00;1.98;;;;;;;5.27;68.58;100737.59;4962715;28;20050;-48
2023/01/30 05:42:27;;;;;;;9.20;1.90;;;;;;;5.30;68.46;100734.22;4954863;28;20057;-47
2023/01/30 05:44:54;;;;;;;5.13;1.73;;;;;;;5.30;69.41;100734.22;4964839;28;20078;-47
2023/01/30 05:47:21;;;;;;;7.68;2.17;;;;;;;5.31;68.42;100731.72;4960287;28;20126;-46
2023/01/30 05:49:47;;;;;;;4.28;1.90;;;;;;;5.32;69.46;100738.59;4956787;28;20043;-47
2023/01/30 05:52:14;;;;;;;3.25;0.30;;;;;;;5.32;69.09;100730.00;4958346;28;20545;-48
2023/01/30 05:54:41;;;;;;;7.45;2.20;;;;;;;5.35;68.71;100728.41;4964725;28;20058;-49
2023/01/30 05:57:08;;;;;;;9.05;2.42;;;;;;;5.37;69.00;100731.03;4966571;28;20065;-47
2023/01/30 05:59:34;;;;;;;9.43;1.63;;;;;;;5.38;68.81;100733.59;4962925;28;20043;-46
2023/01/30 06:02:01;;;;;;;3.90;0.98;;;;;;;5.38;68.60;100728.47;4965297;28;20050;-46
2023/01/30 06:04:28;;;;;;;5.72;2.03;;;;;;;5.40;69.47;100729.41;4964237;28;20117;-49
2023/01/30 06:06:54;;;;;;;7.43;2.28;;;;;;;5.40;69.05;100731.09;4970540;28;20043;-48
2023/01/30 06:09:21;;;;;;;4.10;0.43;;;;;;;5.40;68.74;100737.13;4966875;28;20416;-48
2023/01/30 06:11:47;;;;;;;5.90;2.17;;;;;;;5.44;68.55;100724.38;4962347;28;20149;-46
2023/01/30 06:14:14;;;;;;;4.10;1.98;;;;;;;5.44;68.76;100726.94;4964352;28;20050;-46
2023/01/30 06:16:41;;;;;;;4.40;2.10;;;;;;;5.43;68.32;100725.19;4965995;28;20085;-47
2023/01/30 06:19:07;;;;;;;4.88;1.80;;;;;;;5.38;68.32;100723.34;4966049;28;20054;-45
2023/01/30 06:21:34;;;;;;;9.45;2.45;;;;;;;5.36;69.29;100714.72;4964604;28;20051;-47
2023/01/30 06:24:01;;;;;;;8.30;1.98;;;;;;;5.34;68.33;100710.38;4964794;28;20051;-50
2023/01/30 06:26:28;;;;;;;6.57;2.10;;;;;;;5.32;68.90;100712.91;4963761;28;20050;-48
2023/01/30 06:28:55;;;;;;;6.93;2.20;;;;;;;5.30;68.85;100724.81;4965242;28;20133;-48
2023/01/30 06:31:22;;;;;;;6.15;2.00;;;;;;;5.28;68.87;100723.91;4966025;28;20047;-46
2023/01/30 06:33:48;;;;;;;5.97;2.25;;;;;;;5.26;68.79;100734.13;4964996;28;20043;-47
2023/01/30 06:36:15;;;;;;;6.10;1.80;;;;;;;5.27;68.48;100747.88;4964920;28;20055;-46
2023/01/30 06:38:42;;;;;;;4.47;1.55;;;;;;;5.27;68.81;100756.41;4964772;28;20506;-46
2023/01/30 06:41:08;;;;;;;3.70;1.63;;;;;;;5.25;69.27;100763.22;4964960;28;20061;-49
2023/01/30 06:43:35;;;;;;;8.00;1.73;;;;;;;5.30;68.59;100765.91;4965935;28;20043;-48
2023/01/30 06:46:02;;;;;;;5.57;0.55;;;;;;;5.28;68.63;100758.16;4965111;28;20082;-47
2023/01/30 06:48:29;;;;;;;4.22;1.75;;;;;;;5.26;68.81;100764.97;4963992;28;20045;-48
2023/01/30 06:50:56;;;;;;;5.05;0.55;;;;;;;5.30;68.48;100762.50;4962696;28;20126;-48
2023/01/30 06:53:28;;;;;;;5.25;2.08;;;;;;;5.26;69.61;100759.81;4962756;28;20074;-46
2023/01/30 06:55:57;;;;;;;4.45;2.13;;;;;;;5.26;68.64;100759.81;4964106;28;20082;-45
2023/01/30 06:58:25;;;;;;;2.28;0.68;;;;;;;5.26;68.65;100764.06;4965523;28;20604;-49
2023/01/30 07:00:52;;;;;;;3.88;1.70;;;;;;;5.21;69.35;100775.91;4962151;28;20051;-47
2023/01/30 07:03:18;;;;;;;1.42;0.20;;;;;;;5.24;68.98;100764.03;4964962;28;20042;-48
2023/01/30 07:05:46;;;;;;;7.13;2.10;;;;;;;5.21;69.08;100775.91;4964780;28;20054;-48
2023/01/30 07:08:15;;;;;;;8.85;2.05;;;;;;;5.24;68.96;100781.16;4964877;28;20499;-47
2023/01/30 07:10:42;;;;;;;3.33;1.63;;;;;;;5.25;69.64;100790.59;4965199;28;20054;-47
2023/01/30 07:13:09;;;;;;;6.03;2.15;;;;;;;5.32;69.95;100779.69;4961494;28;20055;-48
2023/01/30 07:15:36;;;;;;;5.40;1.95;;;;;;;5.30;68.94;100781.31;4962043;28;20117;-49
2023/01/30 07:18:04;;;;;;;5.40;0.63;;;;;;;5.32;69.66;100783.94;4965453;28;20074;-46
2023/01/30 07:20:31;;;;;;;4.50;0.57;;;;;;;5.32;69.31;100781.38;4965578;28;20086;-46
2023/01/30 07:22:58;;;;;;;6.85;1.85;;;;;;;5.34;68.88;100796.00;4962793;28;20061;-48
2023/01/30 07:25:26;;;;;;;5.20;1.52;;;;;;;5.34;68.72;100805.44;4962585;28;20148;-46
2023/01/30 07:27:56;;;;;;;3.65;1.95;;;;;;;5.36;69.25;100817.50;4965538;28;20078;-46
2023/01/30 07:30:23;;;;;;;4.63;0.70;;;;;;;5.37;69.38;100824.38;4964224;28;20458;-45
2023/01/30 07:32:51;;;;;;;7.78;1.88;;;;;;;5.42;68.95;100831.34;4965673;28;20495;-45
2023/01/30 07:35:18;;;;;;;7.97;2.17;;;;;;;5.43;69.81;100818.53;4962850;28;20055;-47
2023/01/30 07:37:47;;;;;;;9.07;2.13;;;;;;;5.46;69.08;100817.75;4961857;28;20051;-49
2023/01/30 07:40:14;;;;;;;10.13;2.42;;;;;;;5.48;69.61;100831.53;4955544;28;20082;-45
2023/01/30 07:42:42;;;;;;;4.95;1.70;;;;;;;5.46;68.83;100822.91;4988159;28;20061;-46
2023/01/30 07:45:09;;;;;;;7.25;2.00;;;;;;;5.45;68.92;100821.16;4968553;28;20537;-47
2023/01/30 07:47:36;;;;;;;4.72;0.55;;;;;;;5.43;69.83;100830.53;4958093;28;20130;-45
2023/01/30 07:50:03;;;;;;;9.20;2.50;;;;;;;5.40;68.83;100821.91;4952946;28;20619;-48
2023/01/30 07:52:29;;;;;;;6.88;2.25;;;;;;;5.40;68.72;100821.91;4953637;28;20069;-46
2023/01/30 07:54:56;;;;;;;6.90;2.10;;;;;;;5.40;69.45;100832.16;4953135;28;20150;-44
2023/01/30 07:57:25;;;;;;;2.92;0.43;;;;;;;5.37;69.67;100838.94;4955548;28;20042;-46
2023/01/30 07:59:52;;;;;;;6.57;3.25;;;;;;;5.37;69.33;100850.06;4955775;28;20074;-45
2023/01/30 08:02:18;;;;;;;4.43;1.77;;;;;;;5.38;69.67;100846.66;4957930;28;20102;-46
2023/01/30 08:04:45;;;;;;;11.98;2.22;;;;;;;5.37;69.14;100846.63;4957227;28;20109;-46
2023/01/30 08:07:12;;;;;;;5.88;0.77;;;;;;;5.32;68.73;100851.63;4960056;28;20390;-46
2023/01/30 08:09:38;;;;;;;6.28;2.70;;;;;;;5.30;69.02;100858.38;4959237;28;20081;-46
2023/01/30 08:12:05;;;;;;;8.68;2.28;;;;;;;5.31;69.26;100862.72;4961424;28;20447;-45
2023/01/30 08:14:32;;;;;;;12.55;2.42;;;;;;;5.37;69.68;100865.47;4963755;28;20120;-45
2023/01/30 08:16:58;;;;;;;8.10;1.90;;;;;;;5.43;69.22;100863.94;4963463;28;20131;-46
2023/01/30 08:19:25;;;;;;;7.25;0.70;;;;;;;5.47;70.18;100868.34;4962546;28;20404;-46
2023/01/30 08:21:51;;;;;;;11.57;2.38;;;;;;;5.55;69.55;100869.47;4959275;28;20054;-47
2023/01/30 08:24:18;;;;;;;10.73;2.05;;;;;;;5.60;68.65;100882.44;4960982;28;20133;-48
2023/01/30 08:26:48;;;;;;;7.85;2.47;;;;;;;5.59;70.05;100881.56;4959180;28;20051;-47
2023/01/30 08:29:15;;;;;;;6.03;2.20;;;;;;;5.59;68.56;100881.56;4961239;28;20050;-47
2023/01/30 08:31:43;;;;;;;4.63;2.50;;;;;;;5.59;69.33;100871.28;4967077;28;20047;-50
2023/01/30 08:34:09;;;;;;;4.75;1.83;;;;;;;5.55;69.46;100874.59;4966213;28;20053;-46
2023/01/30 08:36:36;;;;;;;5.35;2.17;;;;;;;5.55;69.15;100877.16;4967340;28;20066;-46
2023/01/30 08:39:04;;;;;;;7.03;3.00;;;;;;;5.51;68.80;100878.75;4966669;28;20502;-46
2023/01/30 08:41:30;;;;;;;4.93;1.90;;;;;;;5.55;69.09;100900.28;4968912;28;20080;-46
2023/01/30 08:43:57;;;;;;;11.40;5.25;;;;;;;5.57;69.67;100896.06;4967659;28;20081;-45
2023/01/30 08:46:23;;;;;;;7.90;2.13;;;;;;;5.63;69.66;100893.69;4967361;28;20062;-50
2023/01/30 08:48:50;;;;;;;15.07;7.20;;;;;;;6.08;69.17;100889.03;4965399;28;20058;-48
2023/01/30 08:51:17;;;;;;;9.25;4.15;;;;;;;6.43;69.68;100876.31;4967855;28;20134;-45
2023/01/30 08:53:44;;;;;;;6.55;2.55;;;;;;;6.75;68.80;100874.59;4966614;28;20078;-48
2023/01/30 08:56:11;;;;;;;4.43;1.77;;;;;;;7.18;68.05;100880.84;4971935;28;20039;-47
2023/01/30 08:58:37;;;;;;;3.70;1.85;;;;;;;7.67;67.93;100881.97;4969806;28;20673;-46
2023/01/30 09:01:05;;;;;;;8.57;3.20;;;;;;;8.00;65.81;100887.81;4973711;28;20051;-46
2023/01/30 09:03:32;;;;;;;6.35;1.08;;;;;;;7.90;65.76;100912.56;4967949;28;20125;-47
2023/01/30 09:05:59;;;;;;;10.65;3.00;;;;;;;7.81;65.25;100913.22;4964922;28;20083;-48
2023/01/30 09:08:27;;;;;;;8.13;0.90;;;;;;;7.78;64.57;100915.72;4968654;28;20602;-47
2023/01/30 09:11:03;;;;;;;6.55;1.67;;;;;;;7.64;64.68;100921.44;4965455;28;20054;-48
2023/01/30 09:13:31;;;;;;;5.38;0.60;;;;;;;7.77;65.69;100916.56;4964609;28;20050;-48
2023/01/30 09:15:58;;;;;;;9.00;1.95;;;;;;;7.88;64.70;100915.09;4968800;28;20098;-47
2023/01/30 09:18:25;;;;;;;8.07;2.28;;;;;;;8.03;64.05;100926.56;4967398;28;20560;-48
2023/01/30 09:20:51;;;;;;;8.65;0.70;;;;;;;7.89;63.58;100945.22;4968048;28;20622;-48
2023/01/30 09:23:19;;;;;;;8.32;2.22;;;;;;;7.75;64.56;100954.31;4965086;28;20062;-48
2023/01/30 09:25:46;;;;;;;2.95;2.05;;;;;;;7.54;64.51;100956.41;4964622;28;20510;-47
2023/01/30 09:28:13;;;;;;;6.97;2.28;;;;;;;7.63;65.08;100960.94;4966243;28;20097;-48
2023/01/30 09:30:39;;;;;;;3.83;1.98;;;;;;;7.76;64.26;100956.06;4968041;28;20061;-46
2023/01/30 09:33:06;;;;;;;2.50;1.50;;;;;;;7.90;64.64;100941.78;4964301;28;20292;-48
2023/01/30 09:35:33;;;;;;;3.95;1.70;;;;;;;8.15;64.32;100944.91;4965924;28;20043;-49
2023/01/30 09:38:00;;;;;;;11.93;2.63;;;;;;;8.76;64.60;100958.22;4964966;28;20668;-49
2023/01/30 09:40:30;;;;;;;2.95;0.70;;;;;;;9.33;63.37;100966.13;4968867;28;20055;-48
2023/01/30 09:45:43;;;;;;;6.30;0.88;;;;;;;10.65;61.55;100965.47;5086723;27;20408;-47
2023/01/30 09:56:06;;;;;;;12.93;1.58;;;;;;;13.06;57.45;100962.75;5026618;28;20946;-51
2023/01/30 09:58:54;;;;;;;5.88;0.98;;;;;;;13.40;55.82;100961.06;5002168;28;20465;-48
2023/01/30 10:01:33;;;;;;;6.00;1.50;;;;;;;13.54;54.77;100964.53;4997832;28;20077;-50
2023/01/30 10:04:09;;;;;;;5.82;0.93;;;;;;;13.61;53.34;100968.88;4997416;28;20484;-50
2023/01/30 10:06:50;;;;;;;8.48;1.85;;;;;;;13.85;53.01;100980.13;4999641;28;20046;-49
2023/01/30 10:09:35;;;;;;;10.35;1.25;;;;;;;13.94;52.14;100978.38;4997558;28;20046;-53
2023/01/30 10:12:27;;;;;;;9.13;1.63;;;;;;;13.84;50.21;100978.41;4999096;28;20514;-51
2023/01/30 10:20:37;;;;;;;3.42;1.33;;;;;;;13.99;49.89;100992.28;5027242;27;20402;-49
2023/01/30 10:25:53;;;;;;;6.65;2.50;;;;;;;14.18;51.22;100997.44;5029185;27;20412;-53
2023/01/30 10:28:25;;;;;;;5.70;2.08;;;;;;;14.40;51.43;101004.31;5019911;28;20049;-50
2023/01/30 10:30:59;;;;;;;10.90;2.53;;;;;;;14.47;50.69;101014.72;5029318;28;20508;-50
2023/01/30 10:36:11;;;;;;;5.97;1.95;;;;;;;14.58;47.96;101012.94;5100822;27;20775;-50
2023/01/30 10:38:44;;;;;;;5.50;0.98;;;;;;;14.67;49.13;101005.97;5040423;28;20049;-51
2023/01/30 10:44:03;;;;;;;6.32;0.95;;;;;;;14.14;48.51;101018.28;5052820;28;20400;-50
2023/01/30 10:47:09;;;;;;;2.83;0.70;;;;;;;13.11;48.64;101023.44;5013065;28;20045;-50
2023/01/30 10:57:54;;;;;;;7.55;1.52;;;;;;;12.20;51.41;101029.13;5055622;28;20402;-50
2023/01/30 11:06:00;;;;;;;8.23;2.22;;;;;;;11.32;54.14;101041.34;5024023;28;20743;-51
2023/01/30 11:08:30;;;;;;;8.80;1.50;;;;;;;10.83;55.22;101035.63;5005305;28;20046;-48
2023/01/30 11:10:58;;;;;;;6.15;1.10;;;;;;;10.61;55.64;101040.53;5002414;28;20057;-50
2023/01/30 11:13:33;;;;;;;7.13;1.75;;;;;;;10.52;56.28;101036.09;5000840;28;21012;-51
2023/01/30 11:16:05;;;;;;;6.05;1.38;;;;;;;10.24;56.84;101040.88;5004950;28;20108;-49
2023/01/30 11:18:42;;;;;;;5.63;1.23;;;;;;;10.42;56.84;101040.25;5010871;28;20058;-48
2023/01/30 11:21:30;;;;;;;7.50;0.90;;;;;;;10.21;57.54;101044.28;4995596;28;20057;-49
2023/01/30 11:24:17;;;;;;;6.07;2.05;;;;;;;10.24;56.92;101051.22;4999510;28;20393;-48
2023/01/30 11:26:43;;;;;;;3.67;1.50;;;;;;;10.07;57.75;101050.97;5006888;28;20093;-50
2023/01/30 11:29:31;;;;;;;6.63;1.88;;;;;;;10.17;57.09;101045.09;5007777;28;20137;-49
2023/01/30 11:32:12;;;;;;;6.75;1.10;;;;;;;10.10;57.69;101043.25;5007082;28;20073;-48
2023/01/30 11:34:42;;;;;;;7.30;1.38;;;;;;;10.06;57.61;101036.28;5007461;28;20126;-49
2023/01/30 11:37:24;;;;;;;8.02;1.08;;;;;;;10.03;58.22;101021.56;5004806;28;20073;-51
2023/01/30 11:39:52;;;;;;;11.10;2.30;;;;;;;9.99;57.83;101019.78;5001874;28;20396;-50
2023/01/30 11:42:30;;;;;;;8.70;1.30;;;;;;;9.87;58.56;101017.88;5003585;28;20120;-52
2023/01/30 11:44:59;;;;;;;2.90;0.75;;;;;;;9.70;58.70;101017.63;5004431;28;20074;-48
2023/01/30 11:47:52;;;;;;;5.85;1.45;;;;;;;9.74;59.16;101027.16;5001913;28;20046;-49
2023/01/30 11:50:38;;;;;;;11.50;1.23;;;;;;;9.72;59.08;101027.13;5003734;28;20497;-49
2023/01/30 11:56:06;;;;;;;16.17;2.58;;;;;;;9.66;59.15;101055.47;5025912;28;20394;-52
2023/01/30 11:58:38;;;;;;;10.15;2.60;;;;;;;9.65;59.30;101053.75;5003268;28;20076;-50
2023/01/30 12:01:08;;;;;;;5.10;2.05;;;;;;;9.57;60.03;101052.75;4999948;28;20058;-49
2023/01/30 12:03:40;;;;;;;;;;;;;;;9.39;60.05;101043.78;5002411;28;20821;-50
2023/01/30 12:06:07;;;;;;;10.40;2.58;;;;;;;9.49;59.96;101039.69;5004331;28;19925;-53
2023/01/30 12:08:40;;;;;;;6.43;2.08;;;;;;;9.51;60.08;101049.22;4999639;28;20427;-51
2023/01/30 12:11:25;;;;;;;5.70;2.20;;;;;;;9.30;60.23;101041.94;5021376;28;20045;-50
2023/01/30 12:13:56;;;;;;;11.82;2.38;;;;;;;9.33;60.06;101043.69;5023017;28;20578;-50
2023/01/30 12:24:43;;;;;;;9.82;2.70;;;;;;;9.08;60.51;101026.00;5068693;27;20394;-49
2023/01/30 12:27:19;;;;;;;4.22;0.70;;;;;;;9.21;60.65;101028.81;5017233;28;20464;-48
2023/01/30 12:32:32;;;;;;;9.38;1.23;;;;;;;9.18;60.76;101021.88;5065146;27;20408;-49
2023/01/30 12:35:00;;;;;;;12.27;2.17;;;;;;;9.25;61.30;101039.25;5090897;28;20212;-50
2023/01/30 12:45:46;;;;;;;10.93;2.22;;;;;;;9.19;61.37;101062.38;5045051;28;21041;-51
2023/01/30 12:54:03;;;;;;;9.55;2.35;;;;;;;9.72;60.62;101065.94;5024139;28;20402;-52
2023/01/30 12:56:48;;;;;;;6.70;1.00;;;;;;;9.55;60.35;101067.38;5016729;28;20472;-49
2023/01/30 13:10:34;;;;;;;5.50;1.02;;;;;;;9.47;60.45;101046.53;5034402;28;20410;-49
2023/01/30 13:15:47;;;;;;;6.10;1.67;;;;;;;9.28;60.38;101020.34;5040659;28;21176;-50
2023/01/30 13:21:06;;;;;;;4.63;1.30;;;;;;;9.12;60.79;101009.72;5099355;27;20895;-52
2023/01/30 13:23:48;;;;;;;5.70;1.80;;;;;;;9.12;60.71;100998.53;5063493;27;20056;-47
2023/01/30 13:26:19;;;;;;;4.60;1.05;;;;;;;9.07;60.85;101001.00;5061867;28;20052;-52
2023/01/30 13:29:08;;;;;;;10.40;1.90;;;;;;;8.93;60.77;101005.03;5076270;28;20405;-50
2023/01/30 13:31:39;;;;;;;12.30;2.15;;;;;;;8.96;60.66;101024.06;5069334;28;20676;-49
2023/01/30 13:34:14;;;;;;;8.07;1.40;;;;;;;8.88;60.98;101035.94;5078171;28;20125;-50
2023/01/30 13:42:26;;;;;;;11.07;2.33;;;;;;;8.96;61.33;101049.91;5053441;28;20387;-47
2023/01/30 13:44:55;;;;;;;10.98;2.47;;;;;;;8.96;61.53;101049.03;4966629;28;20057;-49
2023/01/30 13:50:37;;;;;;;6.93;1.38;;;;;;;8.98;60.56;101042.16;5057368;27;20393;-48